Time;durP1;ratioP1;P1;durP2;ratioP2;P2;SDS_P1;SDS_P2;PMS_P1;PMS_P2;Temp;Humidity;BMP_temperature;BMP_pressure;BME280_temperature;BME280_humidity;BME280_pressure;Samples;Min_cycle;Max_cycle;Signal;HPM_P1;HPM_P2
2021/05/05 00:00:25;;;;;;;4.95;3.60;;;;;;;1.36;50.14;93943.94;4980194;28;20079;-66
2021/05/05 00:02:50;;;;;;;4.47;3.33;;;;;;;1.35;50.20;93934.44;4981893;28;20161;-66
2021/05/05 00:05:15;;;;;;;7.45;4.07;;;;;;;1.30;50.04;93940.09;4978824;28;20510;-66
2021/05/05 00:07:42;;;;;;;5.78;3.88;;;;;;;1.17;50.43;93937.72;4985414;28;20118;-66
2021/05/05 00:10:07;;;;;;;9.98;4.28;;;;;;;0.92;51.39;93934.06;4980962;28;20311;-66
2021/05/05 00:12:34;;;;;;;6.65;3.33;;;;;;;0.91;51.21;93945.84;4977653;28;20146;-66
2021/05/05 00:15:00;;;;;;;7.47;3.80;;;;;;;0.97;51.34;93928.41;4981977;28;20130;-66
2021/05/05 00:17:25;;;;;;;6.00;4.30;;;;;;;0.95;51.70;93934.13;4986016;28;20101;-66
2021/05/05 00:19:51;;;;;;;6.13;4.00;;;;;;;0.94;51.41;93937.91;4981847;28;20111;-66
2021/05/05 00:22:16;;;;;;;7.18;4.78;;;;;;;0.47;52.99;93935.16;4984873;28;20107;-66
2021/05/05 00:24:42;;;;;;;8.70;4.60;;;;;;;0.64;51.63;93938.00;4980509;28;20078;-66
2021/05/05 00:27:07;;;;;;;8.30;4.30;;;;;;;0.82;52.30;93927.50;4973074;28;20114;-68
2021/05/05 00:29:33;;;;;;;7.40;3.92;;;;;;;0.54;53.21;93929.91;4980914;28;20106;-66
2021/05/05 00:31:58;;;;;;;7.13;3.80;;;;;;;1.05;51.53;93922.00;4980515;28;20098;-66
2021/05/05 00:34:24;;;;;;;4.57;3.28;;;;;;;1.33;50.58;93912.72;4977470;28;20103;-66
2021/05/05 00:36:49;;;;;;;6.15;3.45;;;;;;;1.59;49.39;93925.84;4980279;28;20082;-66
2021/05/05 00:39:14;;;;;;;4.93;3.60;;;;;;;1.45;49.75;93920.41;4980140;28;20111;-66
2021/05/05 00:41:40;;;;;;;6.60;3.33;;;;;;;1.40;49.85;93916.19;4981330;28;20083;-66
2021/05/05 00:44:06;;;;;;;3.58;3.10;;;;;;;1.49;49.36;93911.31;4984987;28;20083;-66
2021/05/05 00:46:31;;;;;;;8.25;3.65;;;;;;;1.23;49.81;93898.16;4980027;28;20487;-66
2021/05/05 00:48:56;;;;;;;4.88;3.20;;;;;;;0.19;52.73;93901.75;4984702;28;20122;-66
2021/05/05 00:51:22;;;;;;;5.75;2.40;;;;;;;0.86;51.08;93895.59;4980233;28;20106;-66
2021/05/05 00:53:48;;;;;;;5.15;2.92;;;;;;;0.86;50.82;93901.69;4982524;28;20140;-66
2021/05/05 00:56:13;;;;;;;5.65;3.30;;;;;;;0.93;50.84;93895.66;4981609;28;20086;-66
2021/05/05 00:58:38;;;;;;;5.82;2.88;;;;;;;1.07;49.80;93895.75;4973629;28;20133;-66
2021/05/05 01:01:04;;;;;;;6.18;3.05;;;;;;;0.76;50.94;93891.69;4980353;28;20086;-66
2021/05/05 01:03:29;;;;;;;9.68;3.30;;;;;;;0.19;51.96;93888.44;4980373;28;20118;-66
2021/05/05 01:05:55;;;;;;;6.55;2.78;;;;;;;0.26;51.90;93893.84;4980361;28;20165;-66
2021/05/05 01:08:21;;;;;;;6.15;3.15;;;;;;;0.28;51.20;93898.78;4980149;28;20529;-66
2021/05/05 01:10:47;;;;;;;4.45;3.08;;;;;;;0.06;52.09;93903.13;4979481;28;20113;-66
2021/05/05 01:13:13;;;;;;;7.70;3.08;;;;;;;0.31;52.05;93893.53;4980363;28;20082;-66
2021/05/05 01:15:39;;;;;;;5.05;2.70;;;;;;;0.63;51.42;93895.78;4978273;28;20098;-66
2021/05/05 01:18:04;;;;;;;6.53;2.47;;;;;;;0.89;50.25;93892.19;4980929;28;20560;-66
2021/05/05 01:20:30;;;;;;;7.43;2.95;;;;;;;0.70;50.60;93889.75;4979073;28;20094;-66
2021/05/05 01:22:55;;;;;;;5.60;2.90;;;;;;;0.83;50.08;93886.44;4979439;28;20103;-66
2021/05/05 01:25:21;;;;;;;5.72;3.05;;;;;;;1.08;49.37;93893.84;4981107;28;20244;-66
2021/05/05 01:27:46;;;;;;;5.97;2.60;;;;;;;0.64;50.42;93902.63;4978995;28;20102;-66
2021/05/05 01:30:13;;;;;;;5.80;2.47;;;;;;;0.71;49.50;93886.72;4979155;28;20161;-66
2021/05/05 01:32:39;;;;;;;4.28;2.10;;;;;;;0.33;49.79;93898.47;4979472;28;20839;-66
2021/05/05 01:35:05;;;;;;;9.35;2.58;;;;;;;0.03;50.82;93893.19;4979290;28;20103;-66
2021/05/05 01:37:31;;;;;;;7.63;2.22;;;;;;;-0.05;50.93;93886.25;4980259;28;20109;-66
2021/05/05 01:39:56;;;;;;;4.80;1.77;;;;;;;-0.55;52.61;93893.63;4979190;28;20098;-66
2021/05/05 01:42:22;;;;;;;7.18;2.30;;;;;;;-1.18;54.11;93886.97;4980004;28;20114;-66
2021/05/05 01:44:47;;;;;;;3.47;1.98;;;;;;;-0.69;53.05;93888.09;4978012;28;20133;-66
2021/05/05 01:47:13;;;;;;;6.35;2.38;;;;;;;-0.58;52.84;93884.44;4979488;28;20736;-66
2021/05/05 01:49:47;;;;;;;6.93;2.55;;;;;;;-0.34;51.96;93891.25;4979717;28;20110;-66
2021/05/05 01:52:14;;;;;;;6.25;2.40;;;;;;;-0.47;52.43;93884.59;4980354;28;20083;-66
2021/05/05 01:54:39;;;;;;;5.57;2.17;;;;;;;0.08;51.42;93876.94;4978166;28;21417;-66
2021/05/05 01:57:42;;;;;;;8.38;2.38;;;;;;;-0.12;51.33;93878.19;4979983;28;20086;-66
2021/05/05 02:00:10;;;;;;;7.70;2.63;;;;;;;-0.06;51.77;93882.84;4976056;28;20102;-66
2021/05/05 02:02:36;;;;;;;8.90;2.00;;;;;;;0.27;50.88;93878.63;4979030;28;20137;-66
2021/05/05 02:05:03;;;;;;;5.18;1.90;;;;;;;0.19;51.48;93879.69;4980187;28;20417;-66
2021/05/05 02:07:28;;;;;;;5.57;2.40;;;;;;;0.08;52.14;93872.38;4977747;28;20106;-66
2021/05/05 02:09:54;;;;;;;8.18;2.40;;;;;;;-0.04;52.08;93877.16;4979829;28;20110;-66
2021/05/05 02:12:20;;;;;;;5.93;2.33;;;;;;;0.28;51.88;93872.19;4979213;28;20087;-66
2021/05/05 02:14:46;;;;;;;10.85;2.25;;;;;;;0.25;52.03;93876.34;4979253;28;20114;-66
2021/05/05 02:17:12;;;;;;;8.70;2.63;;;;;;;-0.11;52.82;93869.84;4978869;28;20102;-66
2021/05/05 02:19:37;;;;;;;4.75;2.40;;;;;;;0.16;52.49;93875.88;4979507;28;20589;-66
2021/05/05 02:22:03;;;;;;;5.13;2.53;;;;;;;0.34;51.88;93871.50;4977558;28;20102;-66
2021/05/05 02:24:28;;;;;;;7.60;2.40;;;;;;;0.64;51.17;93870.66;4978975;28;20091;-66
2021/05/05 02:26:54;;;;;;;7.90;2.35;;;;;;;0.79;50.47;93879.56;4978241;28;20099;-67
2021/05/05 02:29:19;;;;;;;9.10;2.65;;;;;;;0.11;52.47;93882.28;4978921;28;20106;-66
2021/05/05 02:31:44;;;;;;;4.88;2.40;;;;;;;0.43;51.51;93891.75;4981041;28;20109;-66
2021/05/05 02:34:10;;;;;;;10.43;2.42;;;;;;;0.48;51.87;93884.22;4982822;28;20133;-66
2021/05/05 02:36:36;;;;;;;3.50;1.90;;;;;;;0.50;51.46;93894.50;4983458;28;21608;-66
2021/05/05 02:39:03;;;;;;;3.42;2.03;;;;;;;0.57;50.99;93899.88;4983187;28;20182;-66
2021/05/05 02:41:29;;;;;;;3.42;1.98;;;;;;;0.26;52.58;93887.75;4982865;28;20087;-66
2021/05/05 02:43:54;;;;;;;7.20;2.42;;;;;;;0.72;51.01;93885.56;4982429;28;20109;-66
2021/05/05 02:46:19;;;;;;;4.57;2.50;;;;;;;-0.33;53.54;93886.69;4982710;28;20537;-66
2021/05/05 02:48:45;;;;;;;2.63;1.88;;;;;;;-0.70;55.84;93881.25;4982575;28;20605;-66
2021/05/05 02:51:10;;;;;;;5.82;2.33;;;;;;;-0.59;55.20;93882.91;4982353;28;20449;-66
2021/05/05 02:53:36;;;;;;;4.32;1.95;;;;;;;-0.88;56.13;93881.00;4982596;28;20083;-66
2021/05/05 02:56:01;;;;;;;2.80;1.77;;;;;;;-0.74;56.32;93881.19;4983788;28;20067;-66
2021/05/05 02:58:27;;;;;;;4.35;2.13;;;;;;;-0.61;55.73;93879.09;4982381;28;20098;-66
2021/05/05 03:00:53;;;;;;;5.60;2.10;;;;;;;-0.40;54.67;93871.41;4990103;28;20086;-66
2021/05/05 03:03:18;;;;;;;6.75;2.22;;;;;;;-0.35;54.82;93873.75;4990442;28;20641;-66
2021/05/05 03:05:44;;;;;;;7.65;2.33;;;;;;;-0.27;54.85;93866.63;4987257;28;20099;-66
2021/05/05 03:08:09;;;;;;;5.53;2.72;;;;;;;-0.50;54.30;93872.03;4991694;28;20075;-66
2021/05/05 03:10:35;;;;;;;4.65;2.30;;;;;;;-0.67;55.71;93870.66;4989757;28;20110;-66
2021/05/05 03:13:00;;;;;;;5.22;2.58;;;;;;;-0.72;54.72;93869.09;4991285;28;20555;-66
2021/05/05 03:15:26;;;;;;;7.10;2.65;;;;;;;0.50;51.64;93873.19;4988004;28;20110;-66
2021/05/05 03:17:51;;;;;;;6.10;2.45;;;;;;;0.99;50.87;93856.09;4990163;28;20445;-66
2021/05/05 03:20:16;;;;;;;6.55;2.60;;;;;;;1.08;50.70;93861.88;4988033;28;20587;-66
2021/05/05 03:22:42;;;;;;;5.78;2.90;;;;;;;1.09;49.92;93866.09;4988841;28;20130;-66
2021/05/05 03:25:08;;;;;;;8.20;2.30;;;;;;;1.42;49.30;93865.94;4987241;28;20394;-67
2021/05/05 03:27:33;;;;;;;22.90;11.25;;;;;;;1.52;49.36;93867.13;4987957;28;20106;-66
2021/05/05 03:29:59;;;;;;;8.77;4.97;;;;;;;1.73;49.81;93871.81;4987924;28;20110;-67
2021/05/05 03:32:25;;;;;;;7.63;3.30;;;;;;;1.65;49.25;93864.91;4989624;28;20424;-66
2021/05/05 03:34:50;;;;;;;5.70;3.10;;;;;;;1.82;48.37;93863.47;4989233;28;20110;-66
2021/05/05 03:37:15;;;;;;;7.88;3.33;;;;;;;1.77;47.99;93870.69;4989600;28;20098;-66
2021/05/05 03:39:41;;;;;;;4.15;2.22;;;;;;;1.85;47.45;93870.72;4989965;28;20460;-66
2021/05/05 03:42:06;;;;;;;5.70;2.70;;;;;;;2.15;46.85;93871.22;4988440;28;20205;-66
2021/05/05 03:44:32;;;;;;;4.10;2.50;;;;;;;2.03;46.53;93868.88;4990457;28;20083;-67
2021/05/05 03:46:57;;;;;;;5.20;2.10;;;;;;;1.72;46.77;93865.72;4986510;28;20118;-66
2021/05/05 03:49:23;;;;;;;9.20;2.33;;;;;;;1.34;48.03;93875.03;4989949;28;20123;-67
2021/05/05 03:51:48;;;;;;;5.40;2.20;;;;;;;1.35;48.07;93873.13;4989779;28;20165;-66
2021/05/05 03:54:15;;;;;;;3.83;1.98;;;;;;;1.59;47.94;93874.41;4988124;28;20514;-66
2021/05/05 03:56:40;;;;;;;7.00;2.72;;;;;;;1.92;47.11;93879.50;4982902;28;20109;-66
2021/05/05 03:59:06;;;;;;;6.40;1.98;;;;;;;1.92;46.66;93882.19;4989735;28;20107;-67
2021/05/05 04:01:31;;;;;;;11.80;2.70;;;;;;;1.38;46.88;93877.69;4988073;28;20082;-66
2021/05/05 04:03:56;;;;;;;6.15;2.10;;;;;;;1.61;47.55;93886.22;4990107;28;20106;-66
2021/05/05 04:06:22;;;;;;;3.75;1.95;;;;;;;1.47;46.57;93894.13;4986317;28;20099;-66
2021/05/05 04:08:47;;;;;;;5.95;1.83;;;;;;;1.73;45.58;93890.47;4991005;28;20083;-66
2021/05/05 04:11:13;;;;;;;5.57;2.20;;;;;;;1.52;45.92;93889.22;4987709;28;20115;-66
2021/05/05 04:13:38;;;;;;;7.45;2.03;;;;;;;1.27;46.31;93885.63;4989597;28;20075;-66
2021/05/05 04:16:04;;;;;;;7.47;2.72;;;;;;;-0.89;50.61;93898.81;4983481;28;20078;-67
2021/05/05 04:18:29;;;;;;;9.48;2.33;;;;;;;0.36;48.54;93898.53;4987070;28;20119;-66
2021/05/05 04:20:55;;;;;;;7.53;2.22;;;;;;;1.14;46.25;93895.03;4989648;28;20075;-66
2021/05/05 04:23:20;;;;;;;8.25;2.38;;;;;;;0.45;48.23;93897.47;4982444;28;20552;-66
2021/05/05 04:25:46;;;;;;;10.77;2.10;;;;;;;0.87;46.89;93900.56;4988292;28;20086;-66
2021/05/05 04:28:11;;;;;;;6.22;2.35;;;;;;;0.86;47.41;93893.69;4984742;28;20480;-66
2021/05/05 04:30:37;;;;;;;8.48;2.03;;;;;;;1.26;46.12;93899.34;4988872;28;20118;-66
2021/05/05 04:33:02;;;;;;;9.65;2.45;;;;;;;0.80;46.99;93895.16;4987402;28;20083;-66
2021/05/05 04:35:28;;;;;;;6.93;2.20;;;;;;;0.88;47.07;93909.31;4987802;28;20098;-66
2021/05/05 04:37:53;;;;;;;5.40;1.65;;;;;;;0.84;47.53;93903.16;4984963;28;20342;-66
2021/05/05 04:40:19;;;;;;;12.68;2.40;;;;;;;1.04;46.72;93906.41;4987051;28;20141;-66
2021/05/05 04:42:44;;;;;;;6.40;1.92;;;;;;;1.14;47.01;93900.38;4983294;28;20110;-66
2021/05/05 04:45:10;;;;;;;6.07;2.00;;;;;;;0.82;47.46;93913.44;4987211;28;20070;-66
2021/05/05 04:47:36;;;;;;;11.60;2.72;;;;;;;-0.18;50.24;93922.97;4986956;28;20109;-66
2021/05/05 04:50:04;;;;;;;9.52;2.58;;;;;;;-0.39;51.24;93928.00;4987199;28;20118;-66
2021/05/05 04:52:29;;;;;;;8.15;2.15;;;;;;;0.07;50.66;93923.28;4987186;28;20608;-66
2021/05/05 04:54:55;;;;;;;4.85;2.22;;;;;;;0.28;50.49;93934.16;4986865;28;20103;-66
2021/05/05 04:57:20;;;;;;;10.93;2.63;;;;;;;0.14;50.35;93936.66;4986829;28;20544;-66
2021/05/05 04:59:46;;;;;;;7.60;2.35;;;;;;;0.19;50.37;93935.56;4987538;28;20106;-66
2021/05/05 05:02:11;;;;;;;9.95;2.85;;;;;;;0.18;50.36;93942.03;4986242;28;20106;-66
2021/05/05 05:04:40;;;;;;;7.35;2.55;;;;;;;0.07;50.77;93942.66;4988981;28;20082;-66
2021/05/05 05:07:06;;;;;;;7.20;2.83;;;;;;;0.15;51.18;93942.75;4988510;28;20107;-66
2021/05/05 05:09:32;;;;;;;9.88;3.22;;;;;;;-1.01;54.40;93947.56;4985156;28;20087;-66
2021/05/05 05:11:57;;;;;;;7.82;3.13;;;;;;;-0.34;53.96;93956.91;4987068;28;20089;-66
2021/05/05 05:14:23;;;;;;;9.55;3.42;;;;;;;-0.66;55.01;93967.06;4987536;28;20130;-65
2021/05/05 05:16:48;;;;;;;11.52;2.78;;;;;;;-0.80;55.29;93971.06;4986947;28;20262;-65
2021/05/05 05:19:14;;;;;;;7.68;2.40;;;;;;;-0.36;55.57;93965.25;4986631;28;20118;-66
2021/05/05 05:21:39;;;;;;;8.07;2.80;;;;;;;-0.22;54.50;93970.00;4984335;28;20590;-66
2021/05/05 05:24:05;;;;;;;9.68;2.58;;;;;;;-0.27;53.63;93983.59;4988825;28;20086;-66
2021/05/05 05:26:31;;;;;;;10.73;2.85;;;;;;;-0.56;54.97;93975.22;4987657;28;20114;-66
2021/05/05 05:28:56;;;;;;;6.30;2.55;;;;;;;-0.68;55.46;93978.06;4986329;28;20149;-66
2021/05/05 05:31:21;;;;;;;8.82;2.60;;;;;;;-0.21;54.19;93982.94;4986243;28;20110;-66
2021/05/05 05:33:47;;;;;;;10.20;2.65;;;;;;;-0.01;53.84;93978.28;4988497;28;20086;-65
2021/05/05 05:36:12;;;;;;;5.50;2.30;;;;;;;0.29;53.87;93980.16;4985074;28;20074;-65
2021/05/05 05:38:38;;;;;;;12.73;3.25;;;;;;;0.23;53.95;93981.63;4987127;28;20646;-66
2021/05/05 05:41:03;;;;;;;7.82;3.00;;;;;;;0.03;55.60;93988.97;4987772;28;20129;-66
2021/05/05 05:43:29;;;;;;;9.00;3.00;;;;;;;0.15;54.15;93994.06;4986703;28;20149;-66
2021/05/05 05:45:54;;;;;;;9.52;2.88;;;;;;;-0.01;54.70;93982.84;4982097;28;20111;-65
2021/05/05 05:48:19;;;;;;;15.52;3.47;;;;;;;-0.26;55.12;93977.16;4985819;28;20153;-65
2021/05/05 05:50:45;;;;;;;9.75;3.17;;;;;;;0.53;54.09;93978.94;4985881;28;20471;-65
2021/05/05 05:53:10;;;;;;;7.60;2.90;;;;;;;0.38;53.33;93972.72;4985845;28;20097;-67
2021/05/05 05:55:36;;;;;;;9.52;2.53;;;;;;;0.38;52.48;93976.16;4986266;28;20500;-66
2021/05/05 05:58:03;;;;;;;11.68;3.15;;;;;;;1.11;51.23;93975.75;4987191;28;20107;-67
2021/05/05 06:00:29;;;;;;;4.43;2.45;;;;;;;1.06;51.42;93982.16;4988986;28;20130;-66
2021/05/05 06:02:54;;;;;;;12.32;3.10;;;;;;;0.72;51.97;93980.69;4987025;28;20194;-67
2021/05/05 06:05:20;;;;;;;8.20;2.47;;;;;;;1.30;51.71;93972.09;4987874;28;20889;-67
2021/05/05 06:07:45;;;;;;;6.60;2.35;;;;;;;1.29;51.75;93973.22;4990674;28;20479;-66
2021/05/05 06:10:12;;;;;;;8.85;2.90;;;;;;;0.91;51.39;93981.25;4990033;28;20114;-67
2021/05/05 06:12:37;;;;;;;8.77;3.78;;;;;;;2.11;50.33;93974.53;4989827;28;20623;-66
2021/05/05 06:15:04;;;;;;;6.78;3.00;;;;;;;1.48;50.37;93991.66;4986824;28;20571;-66
2021/05/05 06:17:30;;;;;;;4.60;2.10;;;;;;;2.24;49.05;93988.34;4990724;28;20094;-66
2021/05/05 06:19:56;;;;;;;7.55;2.85;;;;;;;2.02;48.90;93982.09;4987249;28;20083;-66
2021/05/05 06:22:21;;;;;;;12.52;3.45;;;;;;;0.67;51.48;93990.53;4990069;28;20113;-66
2021/05/05 06:24:47;;;;;;;10.93;3.45;;;;;;;1.08;51.46;93987.88;4985438;28;20140;-67
2021/05/05 06:27:12;;;;;;;10.57;3.70;;;;;;;1.19;50.64;93985.31;4989098;28;20103;-66
2021/05/05 06:29:38;;;;;;;7.35;3.10;;;;;;;1.63;49.69;93981.84;4989803;28;20106;-66
2021/05/05 06:32:03;;;;;;;10.30;3.20;;;;;;;0.60;53.10;93979.03;4990457;28;20536;-66
2021/05/05 06:34:31;;;;;;;9.77;3.75;;;;;;;0.89;53.12;93991.50;4988834;28;20117;-67
2021/05/05 06:36:57;;;;;;;8.32;2.63;;;;;;;0.54;53.98;94005.22;4991248;28;20082;-66
2021/05/05 06:39:22;;;;;;;12.20;4.07;;;;;;;-1.65;59.35;94012.78;4989024;28;20122;-65
2021/05/05 06:41:48;;;;;;;11.98;3.65;;;;;;;-1.39;59.76;94003.41;4991603;28;20082;-66
2021/05/05 06:44:13;;;;;;;9.70;3.40;;;;;;;-1.98;61.69;94009.81;4988866;28;20086;-65
2021/05/05 06:46:42;;;;;;;9.10;3.72;;;;;;;-1.90;62.01;94016.81;4989608;28;20099;-65
2021/05/05 06:49:09;;;;;;;11.38;3.75;;;;;;;-1.90;61.24;94017.59;4991639;28;20122;-65
2021/05/05 06:51:35;;;;;;;8.02;3.38;;;;;;;-1.18;60.63;94006.47;4985973;28;20110;-66
2021/05/05 06:54:00;;;;;;;9.45;3.03;;;;;;;-1.05;59.62;94017.66;4987895;28;20111;-66
2021/05/05 06:56:27;;;;;;;6.30;2.58;;;;;;;-0.38;58.21;94014.59;4987277;28;20082;-67
2021/05/05 06:58:52;;;;;;;9.93;3.15;;;;;;;-0.85;58.92;94016.50;4982816;28;20095;-66
2021/05/05 07:01:18;;;;;;;12.93;5.90;;;;;;;-0.60;58.68;94018.81;4979437;28;20091;-67
2021/05/05 07:03:44;;;;;;;8.75;3.10;;;;;;;0.29;56.85;94009.44;4980205;28;20141;-66
2021/05/05 07:06:09;;;;;;;8.75;2.80;;;;;;;0.31;56.22;94017.84;4982462;28;20461;-66
2021/05/05 07:08:35;;;;;;;6.97;2.88;;;;;;;0.30;56.26;94003.00;4986105;28;20145;-67
2021/05/05 07:11:00;;;;;;;10.48;3.50;;;;;;;-0.55;56.77;94013.22;4983351;28;20140;-66
2021/05/05 07:13:26;;;;;;;10.52;3.30;;;;;;;-0.36;58.21;94010.44;4987117;28;20094;-66
2021/05/05 07:15:51;;;;;;;10.95;3.35;;;;;;;0.26;58.14;94002.19;4977992;28;20099;-66
2021/05/05 07:18:17;;;;;;;8.02;2.80;;;;;;;0.29;56.49;94010.19;4985005;28;20118;-66
2021/05/05 07:20:43;;;;;;;6.60;3.13;;;;;;;0.06;56.15;93998.91;4977264;28;20134;-66
2021/05/05 07:23:08;;;;;;;8.45;3.60;;;;;;;-0.04;54.40;94002.94;4977262;28;20103;-66
2021/05/05 07:25:34;;;;;;;6.90;3.15;;;;;;;0.05;56.31;93989.38;4976553;28;20083;-66
2021/05/05 07:27:59;;;;;;;9.60;3.30;;;;;;;0.57;55.66;93995.75;4977110;28;20102;-66
2021/05/05 07:30:25;;;;;;;9.65;3.05;;;;;;;0.18;55.90;94011.22;4976362;28;20122;-66
2021/05/05 07:32:51;;;;;;;6.20;3.03;;;;;;;0.79;54.75;93999.41;4976284;28;20083;-66
2021/05/05 07:35:18;;;;;;;7.60;2.88;;;;;;;0.64;54.70;93998.47;4976431;28;20137;-67
2021/05/05 07:47:53;;;;;;;9.15;3.20;;;;;;;0.16;57.72;94022.22;4981188;28;20153;-66
2021/05/05 07:50:18;;;;;;;8.82;2.90;;;;;;;0.09;59.70;94009.56;4982930;28;21581;-65
2021/05/05 07:52:44;;;;;;;9.85;3.70;;;;;;;0.38;56.42;94009.97;4985104;28;20436;-65
2021/05/05 07:55:10;;;;;;;9.00;3.40;;;;;;;-0.30;58.82;94019.66;4980568;28;20569;-66
2021/05/05 07:57:36;;;;;;;7.53;3.22;;;;;;;0.53;57.44;94008.22;4983950;28;20128;-66
2021/05/05 08:00:01;;;;;;;7.53;2.80;;;;;;;0.40;55.17;94044.97;4983218;28;20436;-67
2021/05/05 08:02:27;;;;;;;9.00;3.05;;;;;;;-0.98;60.21;94032.97;4984065;28;20281;-66
2021/05/05 08:04:52;;;;;;;5.40;2.88;;;;;;;-2.33;62.72;94026.44;4981575;28;20097;-65
2021/05/05 08:07:21;;;;;;;4.32;2.67;;;;;;;-1.58;60.86;94060.69;4983062;28;20137;-65
2021/05/05 08:09:47;;;;;;;6.18;3.55;;;;;;;-2.19;64.36;94047.22;4978940;28;20109;-66
2021/05/05 08:12:13;;;;;;;6.90;3.03;;;;;;;-2.10;63.67;94047.78;4983906;28;20090;-66
2021/05/05 08:14:39;;;;;;;5.45;3.20;;;;;;;-2.40;64.21;94087.22;4980268;28;20095;-66
2021/05/05 08:17:05;;;;;;;7.50;2.78;;;;;;;-2.30;64.77;94083.31;4983080;28;20453;-66
2021/05/05 08:19:30;;;;;;;4.35;2.60;;;;;;;-3.67;66.30;94101.28;4979732;28;20103;-66
2021/05/05 08:21:56;;;;;;;4.35;2.78;;;;;;;-4.05;67.99;94120.97;4985023;28;20114;-65
2021/05/05 08:24:21;;;;;;;5.18;2.83;;;;;;;-4.22;68.80;94132.50;4982177;28;20083;-65
2021/05/05 08:26:47;;;;;;;2.25;2.05;;;;;;;-3.98;67.80;94120.38;4983909;28;20114;-65
2021/05/05 08:29:12;;;;;;;1.70;1.60;;;;;;;-3.63;66.77;94120.69;4983176;28;20466;-66
2021/05/05 08:31:37;;;;;;;2.17;1.98;;;;;;;-3.59;66.35;94116.25;4984629;28;20674;-65
2021/05/05 08:34:03;;;;;;;2.15;1.70;;;;;;;-3.64;66.46;94101.41;4982741;28;20102;-65
2021/05/05 08:36:28;;;;;;;4.70;2.30;;;;;;;-4.14;68.04;94101.78;4982798;28;20149;-65
2021/05/05 08:38:55;;;;;;;2.60;1.95;;;;;;;-3.71;66.74;94103.06;4981386;28;20102;-65
2021/05/05 08:41:21;;;;;;;2.03;1.90;;;;;;;-3.25;66.13;94091.91;4984116;28;20095;-65
2021/05/05 08:43:46;;;;;;;2.22;2.03;;;;;;;-3.38;65.69;94087.75;4981993;28;20915;-65
2021/05/05 08:46:12;;;;;;;2.53;2.10;;;;;;;-3.33;65.43;94094.69;4981812;28;20107;-65
2021/05/05 08:48:37;;;;;;;5.30;2.55;;;;;;;-3.28;65.52;94089.91;4978235;28;20189;-65
2021/05/05 08:51:06;;;;;;;2.58;1.92;;;;;;;-2.83;65.71;94101.31;4980398;28;20107;-66
2021/05/05 08:53:31;;;;;;;2.38;2.10;;;;;;;-2.77;66.36;94100.72;4982975;28;20185;-66
2021/05/05 08:55:57;;;;;;;4.20;2.35;;;;;;;-2.91;66.42;94118.88;4981813;28;20166;-65
2021/05/05 08:58:22;;;;;;;3.45;2.78;;;;;;;-3.08;67.86;94098.03;4984458;28;20106;-66
2021/05/05 09:00:48;;;;;;;6.57;3.45;;;;;;;-3.08;67.11;94113.91;4982476;28;20541;-65
2021/05/05 09:03:13;;;;;;;4.22;2.83;;;;;;;-2.72;67.69;94086.44;4978500;28;20114;-65
2021/05/05 09:05:44;;;;;;;6.03;2.67;;;;;;;-2.33;67.58;94078.69;4977424;28;20523;-65
2021/05/05 09:08:11;;;;;;;3.70;2.53;;;;;;;-2.28;67.64;94073.13;4954695;28;20202;-66
2021/05/05 09:10:54;;;;;;;5.50;3.13;;;;;;;-2.11;65.52;94101.94;4990914;28;20106;-65
2021/05/05 09:13:22;;;;;;;6.35;3.30;;;;;;;-2.18;64.51;94083.97;4984464;28;20477;-66
2021/05/05 09:16:04;;;;;;;5.18;2.70;;;;;;;-1.75;65.60;94092.16;4977028;28;20145;-66
2021/05/05 09:18:30;;;;;;;4.32;3.00;;;;;;;-1.55;63.91;94099.00;4979777;28;20484;-66
2021/05/05 09:20:55;;;;;;;3.83;3.08;;;;;;;-1.57;63.60;94085.34;4981988;28;20106;-65
2021/05/05 09:23:21;;;;;;;4.35;3.00;;;;;;;-1.49;63.76;94092.31;4962509;28;20106;-65
2021/05/05 09:25:50;;;;;;;4.95;2.55;;;;;;;-1.18;65.42;94091.41;4983807;28;20090;-65
2021/05/05 09:28:19;;;;;;;3.45;2.40;;;;;;;-1.13;63.54;94082.38;4982543;28;20094;-66
2021/05/05 09:30:47;;;;;;;4.07;2.30;;;;;;;-1.38;64.65;94108.44;4979761;28;20129;-65
2021/05/05 09:33:33;;;;;;;2.72;1.90;;;;;;;-0.70;62.42;94101.78;4983356;28;20536;-66
2021/05/05 09:36:00;;;;;;;2.00;1.80;;;;;;;-0.81;62.39;94107.69;4981422;28;20579;-65
2021/05/05 09:38:51;;;;;;;2.20;1.73;;;;;;;-0.59;62.35;94092.09;4981456;28;20102;-66
2021/05/05 09:41:21;;;;;;;2.38;1.80;;;;;;;-0.53;58.98;94133.97;4970113;28;20443;-66
2021/05/05 09:43:47;;;;;;;4.07;2.25;;;;;;;-0.57;60.20;94105.81;4937032;28;20102;-66
2021/05/05 09:46:41;;;;;;;4.45;3.17;;;;;;;-0.20;59.63;94112.13;4979182;28;20099;-65
2021/05/05 09:49:25;;;;;;;2.65;1.90;;;;;;;0.62;58.64;94091.28;4983331;28;20115;-65
2021/05/05 09:52:02;;;;;;;7.97;2.33;;;;;;;0.42;57.60;94109.25;4975510;28;20111;-65
2021/05/05 09:54:33;;;;;;;5.85;2.97;;;;;;;-0.34;57.88;94113.78;4977600;28;20122;-65
2021/05/05 09:57:15;;;;;;;5.03;2.50;;;;;;;0.61;56.82;94135.00;4980700;28;20110;-67
2021/05/05 09:59:54;;;;;;;2.65;1.80;;;;;;;-1.19;60.87;94156.25;4964024;28;20431;-66
2021/05/05 10:02:20;;;;;;;3.25;2.25;;;;;;;-1.26;63.02;94193.28;4981060;28;20109;-66
2021/05/05 10:05:02;;;;;;;3.38;2.35;;;;;;;-1.06;62.30;94194.84;4980240;28;20078;-65
2021/05/05 10:07:28;;;;;;;10.90;6.38;;;;;;;-0.78;60.96;94202.63;4975318;28;20733;-64
2021/05/05 10:09:54;;;;;;;4.78;2.78;;;;;;;-0.96;61.14;94198.84;4978383;28;20091;-65
2021/05/05 10:12:21;;;;;;;8.80;5.32;;;;;;;-0.79;59.95;94234.84;4980912;28;20133;-65
2021/05/05 10:14:50;;;;;;;2.88;1.33;;;;;;;-1.45;60.21;94212.56;4982502;28;20153;-65
2021/05/05 10:17:16;;;;;;;13.38;7.18;;;;;;;-1.03;61.61;94204.00;4977129;28;20173;-66
2021/05/05 10:19:43;;;;;;;3.30;2.35;;;;;;;-0.87;62.03;94210.03;4977134;28;20462;-66
2021/05/05 10:22:10;;;;;;;1.92;1.73;;;;;;;-1.12;62.28;94211.41;4959390;28;20113;-65
2021/05/05 10:24:39;;;;;;;3.03;1.38;;;;;;;-0.61;60.61;94217.38;4981585;28;20532;-65
2021/05/05 10:27:05;;;;;;;1.90;1.80;;;;;;;-2.21;63.50;94235.75;4978891;28;20107;-66
2021/05/05 10:29:34;;;;;;;3.72;2.78;;;;;;;-1.39;64.34;94226.34;4980912;28;20091;-65
2021/05/05 10:32:12;;;;;;;5.30;3.70;;;;;;;-1.09;62.66;94242.56;4982250;28;20153;-66
2021/05/05 10:34:42;;;;;;;4.73;2.10;;;;;;;-0.25;60.50;94241.97;4961486;28;20656;-65
2021/05/05 10:37:08;;;;;;;4.35;2.70;;;;;;;-0.90;61.00;94244.47;4964949;28;20378;-66
2021/05/05 10:39:38;;;;;;;3.58;2.70;;;;;;;-0.28;61.18;94235.44;4982252;28;20102;-65
2021/05/05 10:42:12;;;;;;;3.47;2.97;;;;;;;-0.31;61.07;94236.16;4982208;28;20111;-65
2021/05/05 10:44:38;;;;;;;5.15;3.78;;;;;;;0.46;57.17;94237.88;4983638;28;20086;-66
2021/05/05 10:47:12;;;;;;;4.63;2.50;;;;;;;0.01;60.23;94259.91;4978953;28;20614;-65
2021/05/05 10:49:59;;;;;;;4.07;2.40;;;;;;;0.85;57.72;94248.34;4981251;28;20158;-64
2021/05/05 10:52:26;;;;;;;5.47;3.57;;;;;;;0.79;57.05;94263.88;4985361;28;20556;-65
2021/05/05 10:54:55;;;;;;;2.35;1.85;;;;;;;1.46;53.06;94256.00;4984867;28;20440;-65
2021/05/05 10:57:22;;;;;;;3.30;2.40;;;;;;;0.68;57.71;94268.25;4984825;28;20605;-66
2021/05/05 10:59:56;;;;;;;3.38;2.40;;;;;;;0.16;59.87;94256.38;4984835;28;20113;-66
2021/05/05 11:02:40;;;;;;;4.30;2.65;;;;;;;-0.08;57.53;94257.47;4986012;28;20475;-66
2021/05/05 11:05:10;;;;;;;3.13;2.33;;;;;;;-0.66;61.99;94264.69;4986791;28;20165;-67
2021/05/05 11:07:52;;;;;;;4.18;2.20;;;;;;;-0.85;61.68;94268.13;4986070;28;20183;-67
2021/05/05 11:13:01;;;;;;;4.20;2.88;;;;;;;-1.41;62.85;94269.19;4986599;28;20656;-66
2021/05/05 11:15:42;;;;;;;6.80;3.35;;;;;;;-1.56;63.88;94273.38;4984719;28;20436;-66
2021/05/05 11:18:30;;;;;;;3.28;2.38;;;;;;;-0.91;62.30;94283.56;4982044;28;20118;-66
2021/05/05 11:20:59;;;;;;;7.97;3.38;;;;;;;-1.31;62.38;94279.25;4982861;28;20071;-66
2021/05/05 11:23:33;;;;;;;;;;;;;;;-1.46;63.13;94274.75;4983743;28;20099;-66
2021/05/05 11:26:18;;;;;;;6.70;3.05;;;;;;;-1.47;65.20;94283.03;4984043;28;20043;-66
2021/05/05 11:29:00;;;;;;;5.47;3.15;;;;;;;-0.84;61.84;94278.41;4981944;28;20091;-67
2021/05/05 11:31:44;;;;;;;4.38;2.97;;;;;;;-0.40;61.76;94270.19;4984918;28;20433;-66
2021/05/05 11:34:09;;;;;;;5.13;3.33;;;;;;;-0.40;60.25;94283.47;4979813;28;20098;-65
2021/05/05 11:36:35;;;;;;;5.03;3.13;;;;;;;0.31;62.87;94284.00;4968574;28;20079;-66
2021/05/05 11:39:03;;;;;;;4.70;2.92;;;;;;;0.91;61.21;94292.94;4983213;28;20153;-67
2021/05/05 11:41:29;;;;;;;5.75;2.83;;;;;;;0.76;55.38;94293.84;4981418;28;20079;-65
2021/05/05 11:43:55;;;;;;;6.18;3.30;;;;;;;0.19;58.25;94308.09;4984329;28;20180;-65
2021/05/05 11:46:21;;;;;;;3.13;2.10;;;;;;;0.16;60.27;94295.50;4979647;28;20103;-65
2021/05/05 11:48:46;;;;;;;4.57;3.22;;;;;;;-1.21;63.38;94320.44;4984652;28;20153;-65